sensor_id;sensor_type;location;lat;lon;timestamp;temperature;humidity
30534;DHT22;17318;52.390;9.754;2023-05-21T00:01:37;16.60;95.90
30534;DHT22;17318;52.390;9.754;2023-05-21T00:04:03;16.60;95.80
30534;DHT22;17318;52.390;9.754;2023-05-21T00:06:32;16.60;95.70
30534;DHT22;17318;52.390;9.754;2023-05-21T00:09:00;16.50;96.10
30534;DHT22;17318;52.390;9.754;2023-05-21T00:11:26;16.50;95.90
30534;DHT22;17318;52.390;9.754;2023-05-21T00:13:52;16.50;96.00
30534;DHT22;17318;52.390;9.754;2023-05-21T00:16:17;16.50;95.90
30534;DHT22;17318;52.390;9.754;2023-05-21T00:18:43;16.60;96.20
30534;DHT22;17318;52.390;9.754;2023-05-21T00:21:09;16.60;96.00
30534;DHT22;17318;52.390;9.754;2023-05-21T00:23:35;16.50;96.20
30534;DHT22;17318;52.390;9.754;2023-05-21T00:26:02;16.50;96.30
30534;DHT22;17318;52.390;9.754;2023-05-21T00:28:27;16.50;96.30
30534;DHT22;17318;52.390;9.754;2023-05-21T00:30:53;16.50;96.40
30534;DHT22;17318;52.390;9.754;2023-05-21T00:33:19;16.50;96.50
30534;DHT22;17318;52.390;9.754;2023-05-21T00:35:46;16.50;96.50
30534;DHT22;17318;52.390;9.754;2023-05-21T00:38:11;16.40;96.60
30534;DHT22;17318;52.390;9.754;2023-05-21T00:40:38;16.40;96.70
30534;DHT22;17318;52.390;9.754;2023-05-21T00:43:05;16.40;96.80
30534;DHT22;17318;52.390;9.754;2023-05-21T00:45:34;16.50;96.40
30534;DHT22;17318;52.390;9.754;2023-05-21T00:48:02;16.50;96.50
30534;DHT22;17318;52.390;9.754;2023-05-21T00:50:29;16.40;96.70
30534;DHT22;17318;52.390;9.754;2023-05-21T00:52:55;16.40;96.70
30534;DHT22;17318;52.390;9.754;2023-05-21T00:55:21;16.40;96.80
30534;DHT22;17318;52.390;9.754;2023-05-21T00:57:47;16.40;96.70
30534;DHT22;17318;52.390;9.754;2023-05-21T01:00:14;16.40;96.50
30534;DHT22;17318;52.390;9.754;2023-05-21T01:02:40;16.40;96.90
30534;DHT22;17318;52.390;9.754;2023-05-21T01:05:06;16.30;96.60
30534;DHT22;17318;52.390;9.754;2023-05-21T01:07:33;16.30;96.80
30534;DHT22;17318;52.390;9.754;2023-05-21T01:10:02;16.30;96.70
30534;DHT22;17318;52.390;9.754;2023-05-21T01:12:29;16.30;96.70
30534;DHT22;17318;52.390;9.754;2023-05-21T01:14:56;16.30;96.70
30534;DHT22;17318;52.390;9.754;2023-05-21T01:17:23;16.30;96.80
30534;DHT22;17318;52.390;9.754;2023-05-21T01:19:51;16.30;97.20
30534;DHT22;17318;52.390;9.754;2023-05-21T01:22:17;16.30;96.90
30534;DHT22;17318;52.390;9.754;2023-05-21T01:24:45;16.30;97.20
30534;DHT22;17318;52.390;9.754;2023-05-21T01:27:12;16.20;97.30
30534;DHT22;17318;52.390;9.754;2023-05-21T01:29:37;16.20;97.30
30534;DHT22;17318;52.390;9.754;2023-05-21T01:34:40;16.20;97.30
30534;DHT22;17318;52.390;9.754;2023-05-21T01:40:17;16.20;97.40
30534;DHT22;17318;52.390;9.754;2023-05-21T01:42:44;16.20;97.00
30534;DHT22;17318;52.390;9.754;2023-05-21T01:45:11;16.20;97.10
30534;DHT22;17318;52.390;9.754;2023-05-21T01:47:38;16.20;97.30
30534;DHT22;17318;52.390;9.754;2023-05-21T01:50:05;16.20;97.40
30534;DHT22;17318;52.390;9.754;2023-05-21T01:52:31;16.20;97.30
30534;DHT22;17318;52.390;9.754;2023-05-21T01:54:57;16.20;97.30
30534;DHT22;17318;52.390;9.754;2023-05-21T01:57:24;16.10;97.60
30534;DHT22;17318;52.390;9.754;2023-05-21T01:59:50;16.10;97.60
30534;DHT22;17318;52.390;9.754;2023-05-21T02:02:18;16.00;97.70
30534;DHT22;17318;52.390;9.754;2023-05-21T02:04:43;15.90;97.70
30534;DHT22;17318;52.390;9.754;2023-05-21T02:07:10;15.90;98.00
30534;DHT22;17318;52.390;9.754;2023-05-21T02:09:39;15.90;98.00
30534;DHT22;17318;52.390;9.754;2023-05-21T02:12:05;15.80;97.90
30534;DHT22;17318;52.390;9.754;2023-05-21T02:14:31;15.80;98.00
30534;DHT22;17318;52.390;9.754;2023-05-21T02:16:58;15.80;98.10
30534;DHT22;17318;52.390;9.754;2023-05-21T02:19:25;15.80;98.10
30534;DHT22;17318;52.390;9.754;2023-05-21T02:21:51;15.80;98.10
30534;DHT22;17318;52.390;9.754;2023-05-21T02:24:17;15.80;98.20
30534;DHT22;17318;52.390;9.754;2023-05-21T02:26:42;15.80;98.30
30534;DHT22;17318;52.390;9.754;2023-05-21T02:29:09;15.80;98.30
30534;DHT22;17318;52.390;9.754;2023-05-21T02:31:35;15.80;98.40
30534;DHT22;17318;52.390;9.754;2023-05-21T02:34:01;15.70;98.30
30534;DHT22;17318;52.390;9.754;2023-05-21T02:36:26;15.80;98.30
30534;DHT22;17318;52.390;9.754;2023-05-21T02:38:53;15.70;98.60
30534;DHT22;17318;52.390;9.754;2023-05-21T02:41:20;15.50;98.70
30534;DHT22;17318;52.390;9.754;2023-05-21T02:43:46;15.50;98.60
30534;DHT22;17318;52.390;9.754;2023-05-21T02:46:11;15.50;98.90
30534;DHT22;17318;52.390;9.754;2023-05-21T02:48:37;15.40;98.80
30534;DHT22;17318;52.390;9.754;2023-05-21T02:51:03;15.50;99.00
30534;DHT22;17318;52.390;9.754;2023-05-21T02:53:28;15.40;98.90
30534;DHT22;17318;52.390;9.754;2023-05-21T02:55:54;15.40;99.00
30534;DHT22;17318;52.390;9.754;2023-05-21T02:58:21;15.30;99.10
30534;DHT22;17318;52.390;9.754;2023-05-21T03:00:49;15.20;99.30
30534;DHT22;17318;52.390;9.754;2023-05-21T03:03:15;15.30;99.00
30534;DHT22;17318;52.390;9.754;2023-05-21T03:05:41;15.30;99.10
30534;DHT22;17318;52.390;9.754;2023-05-21T03:08:07;15.20;99.30
30534;DHT22;17318;52.390;9.754;2023-05-21T03:10:32;15.30;99.10
30534;DHT22;17318;52.390;9.754;2023-05-21T03:12:58;15.20;99.10
30534;DHT22;17318;52.390;9.754;2023-05-21T03:15:23;15.10;99.40
30534;DHT22;17318;52.390;9.754;2023-05-21T03:17:49;15.10;99.60
30534;DHT22;17318;52.390;9.754;2023-05-21T03:20:15;15.00;99.70
30534;DHT22;17318;52.390;9.754;2023-05-21T03:22:44;15.00;99.90
30534;DHT22;17318;52.390;9.754;2023-05-21T03:25:10;14.90;99.90
30534;DHT22;17318;52.390;9.754;2023-05-21T03:27:37;14.90;99.90
30534;DHT22;17318;52.390;9.754;2023-05-21T03:30:04;15.00;99.70
30534;DHT22;17318;52.390;9.754;2023-05-21T03:32:29;15.10;99.40
30534;DHT22;17318;52.390;9.754;2023-05-21T03:34:58;15.20;99.20
30534;DHT22;17318;52.390;9.754;2023-05-21T03:37:24;15.30;99.00
30534;DHT22;17318;52.390;9.754;2023-05-21T03:39:49;15.20;98.90
30534;DHT22;17318;52.390;9.754;2023-05-21T03:42:15;15.20;99.40
30534;DHT22;17318;52.390;9.754;2023-05-21T03:44:41;15.20;99.20
30534;DHT22;17318;52.390;9.754;2023-05-21T03:47:06;15.10;99.50
30534;DHT22;17318;52.390;9.754;2023-05-21T03:49:32;15.00;99.50
30534;DHT22;17318;52.390;9.754;2023-05-21T03:51:57;15.00;99.60
30534;DHT22;17318;52.390;9.754;2023-05-21T03:54:23;15.00;99.70
30534;DHT22;17318;52.390;9.754;2023-05-21T03:56:49;14.90;99.90
30534;DHT22;17318;52.390;9.754;2023-05-21T03:59:15;14.90;99.90
30534;DHT22;17318;52.390;9.754;2023-05-21T04:01:40;15.00;99.90
30534;DHT22;17318;52.390;9.754;2023-05-21T04:04:06;15.00;99.70
30534;DHT22;17318;52.390;9.754;2023-05-21T04:06:32;15.00;99.30
30534;DHT22;17318;52.390;9.754;2023-05-21T04:08:58;15.10;99.40
30534;DHT22;17318;52.390;9.754;2023-05-21T04:11:23;15.20;99.20
30534;DHT22;17318;52.390;9.754;2023-05-21T04:13:49;15.20;99.00
30534;DHT22;17318;52.390;9.754;2023-05-21T04:16:16;15.20;98.90
30534;DHT22;17318;52.390;9.754;2023-05-21T04:18:44;15.20;98.70
30534;DHT22;17318;52.390;9.754;2023-05-21T04:21:10;15.30;98.70
30534;DHT22;17318;52.390;9.754;2023-05-21T04:23:35;15.30;98.80
30534;DHT22;17318;52.390;9.754;2023-05-21T04:26:01;15.30;98.90
30534;DHT22;17318;52.390;9.754;2023-05-21T04:28:27;15.20;98.80
30534;DHT22;17318;52.390;9.754;2023-05-21T04:30:53;15.30;98.70
30534;DHT22;17318;52.390;9.754;2023-05-21T04:33:21;15.30;99.00
30534;DHT22;17318;52.390;9.754;2023-05-21T04:35:50;15.30;99.00
30534;DHT22;17318;52.390;9.754;2023-05-21T04:38:17;15.30;99.00
30534;DHT22;17318;52.390;9.754;2023-05-21T04:40:49;15.30;99.20
30534;DHT22;17318;52.390;9.754;2023-05-21T04:43:15;15.30;99.00
30534;DHT22;17318;52.390;9.754;2023-05-21T04:45:41;15.30;99.00
30534;DHT22;17318;52.390;9.754;2023-05-21T04:48:08;15.40;98.90
30534;DHT22;17318;52.390;9.754;2023-05-21T04:50:33;15.40;98.90
30534;DHT22;17318;52.390;9.754;2023-05-21T04:52:59;15.50;98.80
30534;DHT22;17318;52.390;9.754;2023-05-21T04:55:25;15.50;98.70
30534;DHT22;17318;52.390;9.754;2023-05-21T04:57:51;15.60;98.60
30534;DHT22;17318;52.390;9.754;2023-05-21T05:00:18;15.60;98.50
30534;DHT22;17318;52.390;9.754;2023-05-21T05:02:43;15.70;98.40
30534;DHT22;17318;52.390;9.754;2023-05-21T05:05:09;15.70;98.50
30534;DHT22;17318;52.390;9.754;2023-05-21T05:07:35;15.80;98.40
30534;DHT22;17318;52.390;9.754;2023-05-21T05:10:01;15.90;98.30
30534;DHT22;17318;52.390;9.754;2023-05-21T05:12:27;15.90;98.20
30534;DHT22;17318;52.390;9.754;2023-05-21T05:14:52;15.90;98.10
30534;DHT22;17318;52.390;9.754;2023-05-21T05:17:18;16.00;98.00
30534;DHT22;17318;52.390;9.754;2023-05-21T05:19:44;16.00;98.20
30534;DHT22;17318;52.390;9.754;2023-05-21T05:22:09;16.00;98.20
30534;DHT22;17318;52.390;9.754;2023-05-21T05:24:35;16.10;98.10
30534;DHT22;17318;52.390;9.754;2023-05-21T05:27:01;16.10;98.20
30534;DHT22;17318;52.390;9.754;2023-05-21T05:29:27;16.10;98.50
30534;DHT22;17318;52.390;9.754;2023-05-21T05:31:52;16.20;98.20
30534;DHT22;17318;52.390;9.754;2023-05-21T05:34:18;16.20;98.20
30534;DHT22;17318;52.390;9.754;2023-05-21T05:36:44;16.20;98.10
30534;DHT22;17318;52.390;9.754;2023-05-21T05:39:09;16.30;98.20
30534;DHT22;17318;52.390;9.754;2023-05-21T05:41:35;16.30;98.20
30534;DHT22;17318;52.390;9.754;2023-05-21T05:44:01;16.30;98.30
30534;DHT22;17318;52.390;9.754;2023-05-21T05:46:27;16.40;98.30
30534;DHT22;17318;52.390;9.754;2023-05-21T05:48:53;16.40;98.20
30534;DHT22;17318;52.390;9.754;2023-05-21T05:51:19;16.50;98.10
30534;DHT22;17318;52.390;9.754;2023-05-21T05:53:45;16.60;98.10
30534;DHT22;17318;52.390;9.754;2023-05-21T05:56:10;16.60;98.20
30534;DHT22;17318;52.390;9.754;2023-05-21T05:58:36;16.70;98.20
30534;DHT22;17318;52.390;9.754;2023-05-21T06:01:01;16.70;98.10
30534;DHT22;17318;52.390;9.754;2023-05-21T06:03:27;16.80;98.10
30534;DHT22;17318;52.390;9.754;2023-05-21T06:05:54;16.80;98.10
30534;DHT22;17318;52.390;9.754;2023-05-21T06:08:19;16.90;98.10
30534;DHT22;17318;52.390;9.754;2023-05-21T06:10:45;16.90;98.30
30534;DHT22;17318;52.390;9.754;2023-05-21T06:13:11;16.90;98.10
30534;DHT22;17318;52.390;9.754;2023-05-21T06:15:36;17.00;98.20
30534;DHT22;17318;52.390;9.754;2023-05-21T06:18:03;17.00;98.10
30534;DHT22;17318;52.390;9.754;2023-05-21T06:20:29;17.10;98.20
30534;DHT22;17318;52.390;9.754;2023-05-21T06:22:54;17.10;98.10
30534;DHT22;17318;52.390;9.754;2023-05-21T06:25:20;17.10;98.10
30534;DHT22;17318;52.390;9.754;2023-05-21T06:27:46;17.20;98.20
30534;DHT22;17318;52.390;9.754;2023-05-21T06:30:12;17.20;98.20
30534;DHT22;17318;52.390;9.754;2023-05-21T06:32:37;17.30;98.20
30534;DHT22;17318;52.390;9.754;2023-05-21T06:35:03;17.30;98.20
30534;DHT22;17318;52.390;9.754;2023-05-21T06:37:29;17.30;98.20
30534;DHT22;17318;52.390;9.754;2023-05-21T06:39:55;17.30;98.20
30534;DHT22;17318;52.390;9.754;2023-05-21T06:42:20;17.40;98.00
30534;DHT22;17318;52.390;9.754;2023-05-21T06:44:46;17.40;98.10
30534;DHT22;17318;52.390;9.754;2023-05-21T06:47:12;17.40;98.00
30534;DHT22;17318;52.390;9.754;2023-05-21T06:49:37;17.50;98.00
30534;DHT22;17318;52.390;9.754;2023-05-21T06:52:03;17.50;98.10
30534;DHT22;17318;52.390;9.754;2023-05-21T06:54:29;17.60;98.00
30534;DHT22;17318;52.390;9.754;2023-05-21T06:56:55;17.70;97.90
30534;DHT22;17318;52.390;9.754;2023-05-21T06:59:20;17.70;97.80
30534;DHT22;17318;52.390;9.754;2023-05-21T07:01:46;17.80;97.90
30534;DHT22;17318;52.390;9.754;2023-05-21T07:04:11;17.80;98.20
30534;DHT22;17318;52.390;9.754;2023-05-21T07:06:37;17.90;97.80
30534;DHT22;17318;52.390;9.754;2023-05-21T07:09:03;17.90;97.80
30534;DHT22;17318;52.390;9.754;2023-05-21T07:11:31;18.00;97.90
30534;DHT22;17318;52.390;9.754;2023-05-21T07:13:58;18.00;98.00
30534;DHT22;17318;52.390;9.754;2023-05-21T07:16:26;18.10;97.90
30534;DHT22;17318;52.390;9.754;2023-05-21T07:18:52;18.10;98.00
30534;DHT22;17318;52.390;9.754;2023-05-21T07:21:17;18.20;97.90
30534;DHT22;17318;52.390;9.754;2023-05-21T07:23:43;18.20;97.80
30534;DHT22;17318;52.390;9.754;2023-05-21T07:26:09;18.30;97.80
30534;DHT22;17318;52.390;9.754;2023-05-21T07:28:35;18.40;97.80
30534;DHT22;17318;52.390;9.754;2023-05-21T07:31:01;18.40;97.70
30534;DHT22;17318;52.390;9.754;2023-05-21T07:33:26;18.50;97.80
30534;DHT22;17318;52.390;9.754;2023-05-21T07:35:52;18.50;97.90
30534;DHT22;17318;52.390;9.754;2023-05-21T07:38:18;18.60;97.90
30534;DHT22;17318;52.390;9.754;2023-05-21T07:40:43;18.60;97.90
30534;DHT22;17318;52.390;9.754;2023-05-21T07:43:09;18.70;97.90
30534;DHT22;17318;52.390;9.754;2023-05-21T07:45:35;18.80;97.80
30534;DHT22;17318;52.390;9.754;2023-05-21T07:48:00;18.80;97.70
30534;DHT22;17318;52.390;9.754;2023-05-21T07:50:27;18.90;97.60
30534;DHT22;17318;52.390;9.754;2023-05-21T07:52:52;19.00;97.40
30534;DHT22;17318;52.390;9.754;2023-05-21T07:55:18;19.10;97.30
30534;DHT22;17318;52.390;9.754;2023-05-21T07:57:44;19.20;97.20
30534;DHT22;17318;52.390;9.754;2023-05-21T08:00:10;19.30;97.20
30534;DHT22;17318;52.390;9.754;2023-05-21T08:02:39;19.40;97.10
30534;DHT22;17318;52.390;9.754;2023-05-21T08:05:05;19.40;97.00
30534;DHT22;17318;52.390;9.754;2023-05-21T08:07:30;19.60;96.90
30534;DHT22;17318;52.390;9.754;2023-05-21T08:09:57;19.60;96.80
30534;DHT22;17318;52.390;9.754;2023-05-21T08:12:23;19.80;96.80
30534;DHT22;17318;52.390;9.754;2023-05-21T08:14:48;19.80;96.80
30534;DHT22;17318;52.390;9.754;2023-05-21T08:17:15;19.80;96.70
30534;DHT22;17318;52.390;9.754;2023-05-21T08:19:40;20.00;96.60
30534;DHT22;17318;52.390;9.754;2023-05-21T08:22:06;20.20;96.40
30534;DHT22;17318;52.390;9.754;2023-05-21T08:24:32;20.30;96.40
30534;DHT22;17318;52.390;9.754;2023-05-21T08:26:57;20.40;96.10
30534;DHT22;17318;52.390;9.754;2023-05-21T08:29:23;20.50;96.10
30534;DHT22;17318;52.390;9.754;2023-05-21T08:31:49;20.60;95.90
30534;DHT22;17318;52.390;9.754;2023-05-21T08:34:14;20.80;96.00
30534;DHT22;17318;52.390;9.754;2023-05-21T08:36:40;21.10;95.80
30534;DHT22;17318;52.390;9.754;2023-05-21T08:39:07;21.50;95.40
30534;DHT22;17318;52.390;9.754;2023-05-21T08:41:34;21.80;95.00
30534;DHT22;17318;52.390;9.754;2023-05-21T08:44:01;22.10;94.90
30534;DHT22;17318;52.390;9.754;2023-05-21T08:46:32;22.30;94.50
30534;DHT22;17318;52.390;9.754;2023-05-21T08:49:01;22.40;93.80
30534;DHT22;17318;52.390;9.754;2023-05-21T08:51:28;22.50;93.90
30534;DHT22;17318;52.390;9.754;2023-05-21T08:53:54;22.70;93.70
30534;DHT22;17318;52.390;9.754;2023-05-21T08:56:21;22.70;93.50
30534;DHT22;17318;52.390;9.754;2023-05-21T08:58:48;22.90;93.40
30534;DHT22;17318;52.390;9.754;2023-05-21T09:01:13;22.90;93.20
30534;DHT22;17318;52.390;9.754;2023-05-21T09:03:43;23.00;93.40
30534;DHT22;17318;52.390;9.754;2023-05-21T09:06:11;23.20;93.30
30534;DHT22;17318;52.390;9.754;2023-05-21T09:08:41;23.10;93.00
30534;DHT22;17318;52.390;9.754;2023-05-21T09:11:07;23.10;92.90
30534;DHT22;17318;52.390;9.754;2023-05-21T09:13:33;23.10;93.00
30534;DHT22;17318;52.390;9.754;2023-05-21T09:16:00;23.20;92.80
30534;DHT22;17318;52.390;9.754;2023-05-21T09:18:26;23.10;92.80
30534;DHT22;17318;52.390;9.754;2023-05-21T09:20:52;23.10;92.90
30534;DHT22;17318;52.390;9.754;2023-05-21T09:23:18;23.00;93.00
30534;DHT22;17318;52.390;9.754;2023-05-21T09:25:47;23.30;92.90
30534;DHT22;17318;52.390;9.754;2023-05-21T09:28:14;23.40;92.60
30534;DHT22;17318;52.390;9.754;2023-05-21T09:30:47;23.40;92.50
30534;DHT22;17318;52.390;9.754;2023-05-21T09:33:24;23.20;92.60
30534;DHT22;17318;52.390;9.754;2023-05-21T09:35:50;23.00;92.40
30534;DHT22;17318;52.390;9.754;2023-05-21T09:38:16;22.80;92.60
30534;DHT22;17318;52.390;9.754;2023-05-21T09:40:43;22.80;93.00
30534;DHT22;17318;52.390;9.754;2023-05-21T09:43:13;23.10;93.00
30534;DHT22;17318;52.390;9.754;2023-05-21T09:45:53;23.20;92.50
30534;DHT22;17318;52.390;9.754;2023-05-21T09:48:51;23.20;92.80
30534;DHT22;17318;52.390;9.754;2023-05-21T09:51:20;23.40;92.60
30534;DHT22;17318;52.390;9.754;2023-05-21T09:56:25;23.40;92.20
30534;DHT22;17318;52.390;9.754;2023-05-21T09:58:55;23.50;92.30
30534;DHT22;17318;52.390;9.754;2023-05-21T10:01:23;23.60;92.10
30534;DHT22;17318;52.390;9.754;2023-05-21T10:03:56;23.50;91.90
30534;DHT22;17318;52.390;9.754;2023-05-21T10:06:27;23.60;92.10
30534;DHT22;17318;52.390;9.754;2023-05-21T10:08:55;23.60;92.00
30534;DHT22;17318;52.390;9.754;2023-05-21T10:11:29;23.70;91.80
30534;DHT22;17318;52.390;9.754;2023-05-21T10:14:12;23.80;91.80
30534;DHT22;17318;52.390;9.754;2023-05-21T10:16:39;23.90;91.90
30534;DHT22;17318;52.390;9.754;2023-05-21T10:19:05;24.10;91.90
30534;DHT22;17318;52.390;9.754;2023-05-21T10:21:35;24.20;91.70
30534;DHT22;17318;52.390;9.754;2023-05-21T10:24:02;24.40;91.80
30534;DHT22;17318;52.390;9.754;2023-05-21T10:26:29;24.50;91.40
30534;DHT22;17318;52.390;9.754;2023-05-21T10:28:56;24.50;91.50
30534;DHT22;17318;52.390;9.754;2023-05-21T10:31:25;24.70;91.10
30534;DHT22;17318;52.390;9.754;2023-05-21T10:33:52;24.90;90.90
30534;DHT22;17318;52.390;9.754;2023-05-21T10:36:19;24.90;90.90
30534;DHT22;17318;52.390;9.754;2023-05-21T10:38:46;25.00;90.60
30534;DHT22;17318;52.390;9.754;2023-05-21T10:41:13;25.10;90.80
30534;DHT22;17318;52.390;9.754;2023-05-21T10:52:59;25.60;89.60
30534;DHT22;17318;52.390;9.754;2023-05-21T10:55:28;25.60;90.30
30534;DHT22;17318;52.390;9.754;2023-05-21T10:58:23;25.70;89.40
30534;DHT22;17318;52.390;9.754;2023-05-21T11:00:52;25.70;89.50
30534;DHT22;17318;52.390;9.754;2023-05-21T11:03:19;25.80;88.90
30534;DHT22;17318;52.390;9.754;2023-05-21T11:05:53;25.90;88.20
30534;DHT22;17318;52.390;9.754;2023-05-21T11:08:25;25.90;89.10
30534;DHT22;17318;52.390;9.754;2023-05-21T11:10:57;25.90;88.10
30534;DHT22;17318;52.390;9.754;2023-05-21T11:13:27;25.90;87.90
30534;DHT22;17318;52.390;9.754;2023-05-21T11:21:09;26.00;87.10
30534;DHT22;17318;52.390;9.754;2023-05-21T11:26:17;26.10;86.40
30534;DHT22;17318;52.390;9.754;2023-05-21T11:28:43;26.20;86.00
30534;DHT22;17318;52.390;9.754;2023-05-21T11:31:27;26.20;85.50
30534;DHT22;17318;52.390;9.754;2023-05-21T11:36:39;26.20;86.60
30534;DHT22;17318;52.390;9.754;2023-05-21T11:39:10;26.30;86.50
30534;DHT22;17318;52.390;9.754;2023-05-21T11:44:40;26.50;86.40
30534;DHT22;17318;52.390;9.754;2023-05-21T11:47:07;26.70;85.30
30534;DHT22;17318;52.390;9.754;2023-05-21T11:49:34;26.60;84.00
30534;DHT22;17318;52.390;9.754;2023-05-21T11:52:00;26.50;84.70
30534;DHT22;17318;52.390;9.754;2023-05-21T11:54:27;26.60;84.40
30534;DHT22;17318;52.390;9.754;2023-05-21T11:56:54;26.70;84.70
30534;DHT22;17318;52.390;9.754;2023-05-21T11:59:20;26.80;84.80
30534;DHT22;17318;52.390;9.754;2023-05-21T12:01:45;26.80;85.00
30534;DHT22;17318;52.390;9.754;2023-05-21T12:04:11;26.80;84.60
30534;DHT22;17318;52.390;9.754;2023-05-21T12:06:42;26.70;84.10
30534;DHT22;17318;52.390;9.754;2023-05-21T12:09:09;26.60;83.80
30534;DHT22;17318;52.390;9.754;2023-05-21T12:11:37;26.50;83.60
30534;DHT22;17318;52.390;9.754;2023-05-21T12:14:08;26.60;84.80
30534;DHT22;17318;52.390;9.754;2023-05-21T12:16:35;26.70;84.30
30534;DHT22;17318;52.390;9.754;2023-05-21T12:19:03;26.80;84.40
30534;DHT22;17318;52.390;9.754;2023-05-21T12:21:29;26.80;83.40
30534;DHT22;17318;52.390;9.754;2023-05-21T12:23:56;26.80;84.00
30534;DHT22;17318;52.390;9.754;2023-05-21T12:26:22;26.80;83.90
30534;DHT22;17318;52.390;9.754;2023-05-21T12:28:53;26.90;84.20
30534;DHT22;17318;52.390;9.754;2023-05-21T12:31:20;27.00;83.80
30534;DHT22;17318;52.390;9.754;2023-05-21T12:33:51;27.00;82.70
30534;DHT22;17318;52.390;9.754;2023-05-21T12:36:21;26.90;83.80
30534;DHT22;17318;52.390;9.754;2023-05-21T12:38:48;26.90;83.80
30534;DHT22;17318;52.390;9.754;2023-05-21T12:41:15;26.90;83.40
30534;DHT22;17318;52.390;9.754;2023-05-21T12:43:41;26.90;83.40
30534;DHT22;17318;52.390;9.754;2023-05-21T12:46:07;26.90;83.50
30534;DHT22;17318;52.390;9.754;2023-05-21T12:48:32;26.90;83.40
30534;DHT22;17318;52.390;9.754;2023-05-21T12:50:58;26.90;82.90
30534;DHT22;17318;52.390;9.754;2023-05-21T12:53:24;26.80;83.00
30534;DHT22;17318;52.390;9.754;2023-05-21T12:56:08;26.90;82.30
30534;DHT22;17318;52.390;9.754;2023-05-21T12:58:34;26.80;81.90
30534;DHT22;17318;52.390;9.754;2023-05-21T13:01:05;26.80;81.00
30534;DHT22;17318;52.390;9.754;2023-05-21T13:03:31;26.80;81.90
30534;DHT22;17318;52.390;9.754;2023-05-21T13:06:00;26.80;81.40
30534;DHT22;17318;52.390;9.754;2023-05-21T13:08:26;26.80;81.20
30534;DHT22;17318;52.390;9.754;2023-05-21T13:10:52;26.80;81.30
30534;DHT22;17318;52.390;9.754;2023-05-21T13:13:18;26.90;81.60
30534;DHT22;17318;52.390;9.754;2023-05-21T13:15:43;26.80;81.80
30534;DHT22;17318;52.390;9.754;2023-05-21T13:18:09;26.80;81.10
30534;DHT22;17318;52.390;9.754;2023-05-21T13:20:37;26.80;81.40
30534;DHT22;17318;52.390;9.754;2023-05-21T13:23:03;26.90;81.30
30534;DHT22;17318;52.390;9.754;2023-05-21T13:25:30;26.80;81.80
30534;DHT22;17318;52.390;9.754;2023-05-21T13:28:02;26.80;81.50
30534;DHT22;17318;52.390;9.754;2023-05-21T13:30:29;26.80;81.30
30534;DHT22;17318;52.390;9.754;2023-05-21T13:32:55;26.80;81.80
30534;DHT22;17318;52.390;9.754;2023-05-21T13:35:21;26.80;81.40
30534;DHT22;17318;52.390;9.754;2023-05-21T13:37:47;26.70;82.10
30534;DHT22;17318;52.390;9.754;2023-05-21T13:40:14;26.70;82.00
30534;DHT22;17318;52.390;9.754;2023-05-21T13:42:40;26.80;82.00
30534;DHT22;17318;52.390;9.754;2023-05-21T13:45:07;26.80;81.90
30534;DHT22;17318;52.390;9.754;2023-05-21T13:47:33;26.80;82.30
30534;DHT22;17318;52.390;9.754;2023-05-21T13:49:59;26.90;82.10
30534;DHT22;17318;52.390;9.754;2023-05-21T13:52:25;26.90;82.60
30534;DHT22;17318;52.390;9.754;2023-05-21T13:54:50;27.00;82.00
30534;DHT22;17318;52.390;9.754;2023-05-21T13:57:16;27.00;82.30
30534;DHT22;17318;52.390;9.754;2023-05-21T13:59:42;27.00;82.10
30534;DHT22;17318;52.390;9.754;2023-05-21T14:02:08;27.00;81.60
30534;DHT22;17318;52.390;9.754;2023-05-21T14:04:34;27.00;82.10
30534;DHT22;17318;52.390;9.754;2023-05-21T14:07:00;26.90;82.00
30534;DHT22;17318;52.390;9.754;2023-05-21T14:09:26;26.90;82.30
30534;DHT22;17318;52.390;9.754;2023-05-21T14:11:52;26.90;81.90
30534;DHT22;17318;52.390;9.754;2023-05-21T14:14:19;26.90;82.50
30534;DHT22;17318;52.390;9.754;2023-05-21T14:16:45;26.80;82.40
30534;DHT22;17318;52.390;9.754;2023-05-21T14:19:14;26.90;82.30
30534;DHT22;17318;52.390;9.754;2023-05-21T14:21:40;26.80;82.50
30534;DHT22;17318;52.390;9.754;2023-05-21T14:24:06;26.90;82.40
30534;DHT22;17318;52.390;9.754;2023-05-21T14:26:32;26.80;82.60
30534;DHT22;17318;52.390;9.754;2023-05-21T14:28:57;26.90;82.80
30534;DHT22;17318;52.390;9.754;2023-05-21T14:31:23;26.90;83.10
30534;DHT22;17318;52.390;9.754;2023-05-21T14:33:50;26.90;82.70
30534;DHT22;17318;52.390;9.754;2023-05-21T14:36:16;26.80;83.00
30534;DHT22;17318;52.390;9.754;2023-05-21T14:38:42;26.80;83.30
30534;DHT22;17318;52.390;9.754;2023-05-21T14:41:07;26.80;83.30
30534;DHT22;17318;52.390;9.754;2023-05-21T14:43:34;26.70;83.80
30534;DHT22;17318;52.390;9.754;2023-05-21T14:46:00;26.70;83.20
30534;DHT22;17318;52.390;9.754;2023-05-21T14:48:26;26.70;82.90
30534;DHT22;17318;52.390;9.754;2023-05-21T14:50:52;26.70;82.50
30534;DHT22;17318;52.390;9.754;2023-05-21T14:53:18;26.60;82.50
30534;DHT22;17318;52.390;9.754;2023-05-21T14:55:44;26.60;82.80
30534;DHT22;17318;52.390;9.754;2023-05-21T14:58:11;26.50;82.80
30534;DHT22;17318;52.390;9.754;2023-05-21T15:00:37;26.50;82.60
30534;DHT22;17318;52.390;9.754;2023-05-21T15:03:03;26.50;82.80
30534;DHT22;17318;52.390;9.754;2023-05-21T15:05:29;26.50;83.30
30534;DHT22;17318;52.390;9.754;2023-05-21T15:07:56;26.40;83.50
30534;DHT22;17318;52.390;9.754;2023-05-21T15:10:23;26.30;83.70
30534;DHT22;17318;52.390;9.754;2023-05-21T15:12:49;26.30;83.80
30534;DHT22;17318;52.390;9.754;2023-05-21T15:15:14;26.30;83.60
30534;DHT22;17318;52.390;9.754;2023-05-21T15:17:41;26.30;83.60
30534;DHT22;17318;52.390;9.754;2023-05-21T15:20:08;26.30;83.90
30534;DHT22;17318;52.390;9.754;2023-05-21T15:22:34;26.20;83.80
30534;DHT22;17318;52.390;9.754;2023-05-21T15:25:00;26.30;83.40
30534;DHT22;17318;52.390;9.754;2023-05-21T15:27:26;26.30;83.60
30534;DHT22;17318;52.390;9.754;2023-05-21T15:29:52;26.30;83.30
30534;DHT22;17318;52.390;9.754;2023-05-21T15:32:18;26.30;83.20
30534;DHT22;17318;52.390;9.754;2023-05-21T15:34:47;26.30;83.40
30534;DHT22;17318;52.390;9.754;2023-05-21T15:37:13;26.30;84.50
30534;DHT22;17318;52.390;9.754;2023-05-21T15:39:42;26.40;83.60
30534;DHT22;17318;52.390;9.754;2023-05-21T15:42:08;26.40;83.40
30534;DHT22;17318;52.390;9.754;2023-05-21T15:44:33;26.50;83.50
30534;DHT22;17318;52.390;9.754;2023-05-21T15:46:59;26.50;83.20
30534;DHT22;17318;52.390;9.754;2023-05-21T15:49:25;26.50;83.00
30534;DHT22;17318;52.390;9.754;2023-05-21T15:51:51;26.60;82.70
30534;DHT22;17318;52.390;9.754;2023-05-21T15:54:16;26.60;82.60
30534;DHT22;17318;52.390;9.754;2023-05-21T15:56:45;26.60;82.40
30534;DHT22;17318;52.390;9.754;2023-05-21T15:59:12;26.60;82.40